sensor_id;sensor_type;location;lat;lon;timestamp;temperature;humidity
11609;DHT22;5860;52.018;8.536;2023-04-15T00:01:13;6.70;99.90
11609;DHT22;5860;52.018;8.536;2023-04-15T00:03:45;6.60;99.90
11609;DHT22;5860;52.018;8.536;2023-04-15T00:06:13;6.70;99.90
11609;DHT22;5860;52.018;8.536;2023-04-15T00:08:40;6.70;99.90
11609;DHT22;5860;52.018;8.536;2023-04-15T00:11:07;6.70;99.90
11609;DHT22;5860;52.018;8.536;2023-04-15T00:13:34;6.70;99.90
11609;DHT22;5860;52.018;8.536;2023-04-15T00:16:01;6.70;99.90
11609;DHT22;5860;52.018;8.536;2023-04-15T00:18:29;6.60;99.90
11609;DHT22;5860;52.018;8.536;2023-04-15T00:20:56;6.60;99.90
11609;DHT22;5860;52.018;8.536;2023-04-15T00:23:23;6.50;99.90
11609;DHT22;5860;52.018;8.536;2023-04-15T00:25:50;6.50;99.90
11609;DHT22;5860;52.018;8.536;2023-04-15T00:28:17;6.60;99.90
11609;DHT22;5860;52.018;8.536;2023-04-15T00:30:44;6.60;99.90
11609;DHT22;5860;52.018;8.536;2023-04-15T00:33:13;6.60;99.90
11609;DHT22;5860;52.018;8.536;2023-04-15T00:35:39;6.60;99.90
11609;DHT22;5860;52.018;8.536;2023-04-15T00:38:07;6.70;99.90
11609;DHT22;5860;52.018;8.536;2023-04-15T00:40:34;6.70;99.90
11609;DHT22;5860;52.018;8.536;2023-04-15T00:43:01;6.70;99.90
11609;DHT22;5860;52.018;8.536;2023-04-15T00:45:28;6.70;99.90
11609;DHT22;5860;52.018;8.536;2023-04-15T00:47:56;6.70;99.90
11609;DHT22;5860;52.018;8.536;2023-04-15T00:50:23;6.70;99.90
11609;DHT22;5860;52.018;8.536;2023-04-15T00:52:50;6.60;99.90
11609;DHT22;5860;52.018;8.536;2023-04-15T00:55:17;6.60;99.90
11609;DHT22;5860;52.018;8.536;2023-04-15T00:57:44;6.60;99.90
11609;DHT22;5860;52.018;8.536;2023-04-15T01:00:12;6.60;99.90
11609;DHT22;5860;52.018;8.536;2023-04-15T01:02:40;6.60;99.90
11609;DHT22;5860;52.018;8.536;2023-04-15T01:05:07;6.60;99.90
11609;DHT22;5860;52.018;8.536;2023-04-15T01:07:34;6.60;99.90
11609;DHT22;5860;52.018;8.536;2023-04-15T01:10:03;6.60;99.90
11609;DHT22;5860;52.018;8.536;2023-04-15T01:12:32;6.70;99.90
11609;DHT22;5860;52.018;8.536;2023-04-15T01:15:00;6.60;99.90
11609;DHT22;5860;52.018;8.536;2023-04-15T01:17:28;6.70;99.90
11609;DHT22;5860;52.018;8.536;2023-04-15T01:19:55;6.70;99.90
11609;DHT22;5860;52.018;8.536;2023-04-15T01:22:24;6.60;99.90
11609;DHT22;5860;52.018;8.536;2023-04-15T01:25:09;6.60;99.90
11609;DHT22;5860;52.018;8.536;2023-04-15T01:27:38;6.60;99.90
11609;DHT22;5860;52.018;8.536;2023-04-15T01:30:07;6.60;99.90
11609;DHT22;5860;52.018;8.536;2023-04-15T01:32:34;6.40;99.90
11609;DHT22;5860;52.018;8.536;2023-04-15T01:35:01;6.40;99.90
11609;DHT22;5860;52.018;8.536;2023-04-15T01:37:28;6.40;99.90
11609;DHT22;5860;52.018;8.536;2023-04-15T01:39:55;6.30;99.90
11609;DHT22;5860;52.018;8.536;2023-04-15T01:42:23;6.30;99.90
11609;DHT22;5860;52.018;8.536;2023-04-15T01:44:50;6.30;99.90
11609;DHT22;5860;52.018;8.536;2023-04-15T01:47:17;6.30;99.90
11609;DHT22;5860;52.018;8.536;2023-04-15T01:49:44;6.30;99.90
11609;DHT22;5860;52.018;8.536;2023-04-15T01:52:12;6.30;99.90
11609;DHT22;5860;52.018;8.536;2023-04-15T01:54:40;6.30;99.90
11609;DHT22;5860;52.018;8.536;2023-04-15T01:57:07;6.30;99.90
11609;DHT22;5860;52.018;8.536;2023-04-15T01:59:34;6.30;99.90
11609;DHT22;5860;52.018;8.536;2023-04-15T02:02:01;6.20;99.90
11609;DHT22;5860;52.018;8.536;2023-04-15T02:04:28;6.20;99.90
11609;DHT22;5860;52.018;8.536;2023-04-15T02:06:55;6.20;99.90
11609;DHT22;5860;52.018;8.536;2023-04-15T02:09:22;6.20;99.90
11609;DHT22;5860;52.018;8.536;2023-04-15T02:11:50;6.20;99.90
11609;DHT22;5860;52.018;8.536;2023-04-15T02:14:18;6.20;99.90
11609;DHT22;5860;52.018;8.536;2023-04-15T02:16:45;6.20;99.90
11609;DHT22;5860;52.018;8.536;2023-04-15T02:19:12;6.20;99.90
11609;DHT22;5860;52.018;8.536;2023-04-15T02:21:40;6.30;99.90
11609;DHT22;5860;52.018;8.536;2023-04-15T02:24:07;6.20;99.90
11609;DHT22;5860;52.018;8.536;2023-04-15T02:26:34;6.20;99.90
11609;DHT22;5860;52.018;8.536;2023-04-15T02:29:01;6.30;99.90
11609;DHT22;5860;52.018;8.536;2023-04-15T02:31:28;6.10;99.90
11609;DHT22;5860;52.018;8.536;2023-04-15T02:33:55;6.10;99.90
11609;DHT22;5860;52.018;8.536;2023-04-15T02:36:22;6.10;99.90
11609;DHT22;5860;52.018;8.536;2023-04-15T02:38:49;6.10;99.90
11609;DHT22;5860;52.018;8.536;2023-04-15T02:41:16;6.10;99.90
11609;DHT22;5860;52.018;8.536;2023-04-15T02:43:43;6.10;99.90
11609;DHT22;5860;52.018;8.536;2023-04-15T02:46:10;6.10;99.90
11609;DHT22;5860;52.018;8.536;2023-04-15T02:48:40;6.10;99.90
11609;DHT22;5860;52.018;8.536;2023-04-15T02:51:15;6.10;99.90
11609;DHT22;5860;52.018;8.536;2023-04-15T02:53:42;6.10;99.90
11609;DHT22;5860;52.018;8.536;2023-04-15T02:56:11;6.10;99.90
11609;DHT22;5860;52.018;8.536;2023-04-15T02:58:39;6.00;99.90
11609;DHT22;5860;52.018;8.536;2023-04-15T03:01:07;6.10;99.90
11609;DHT22;5860;52.018;8.536;2023-04-15T03:03:35;6.00;99.90
11609;DHT22;5860;52.018;8.536;2023-04-15T03:06:02;6.10;99.90
11609;DHT22;5860;52.018;8.536;2023-04-15T03:08:29;6.10;99.90
11609;DHT22;5860;52.018;8.536;2023-04-15T03:10:58;6.10;99.90
11609;DHT22;5860;52.018;8.536;2023-04-15T03:13:26;6.10;99.90
11609;DHT22;5860;52.018;8.536;2023-04-15T03:15:53;6.00;99.90
11609;DHT22;5860;52.018;8.536;2023-04-15T03:18:20;6.00;99.90
11609;DHT22;5860;52.018;8.536;2023-04-15T03:20:47;6.00;99.90
11609;DHT22;5860;52.018;8.536;2023-04-15T03:23:14;6.20;99.90
11609;DHT22;5860;52.018;8.536;2023-04-15T03:25:41;6.10;99.90
11609;DHT22;5860;52.018;8.536;2023-04-15T03:28:08;6.10;99.90
11609;DHT22;5860;52.018;8.536;2023-04-15T03:30:35;6.00;99.90
11609;DHT22;5860;52.018;8.536;2023-04-15T03:33:02;6.10;99.90
11609;DHT22;5860;52.018;8.536;2023-04-15T03:35:29;6.00;99.90
11609;DHT22;5860;52.018;8.536;2023-04-15T03:37:56;6.00;99.90
11609;DHT22;5860;52.018;8.536;2023-04-15T03:40:23;5.90;99.90
11609;DHT22;5860;52.018;8.536;2023-04-15T03:42:50;6.00;99.90
11609;DHT22;5860;52.018;8.536;2023-04-15T03:45:17;5.90;99.90
11609;DHT22;5860;52.018;8.536;2023-04-15T03:47:43;5.90;99.90
11609;DHT22;5860;52.018;8.536;2023-04-15T03:50:11;5.80;99.90
11609;DHT22;5860;52.018;8.536;2023-04-15T03:52:38;5.80;99.90
11609;DHT22;5860;52.018;8.536;2023-04-15T03:55:05;5.80;99.90
11609;DHT22;5860;52.018;8.536;2023-04-15T03:57:32;5.80;99.90
11609;DHT22;5860;52.018;8.536;2023-04-15T04:00:04;5.70;99.90
11609;DHT22;5860;52.018;8.536;2023-04-15T04:02:31;5.70;99.90
11609;DHT22;5860;52.018;8.536;2023-04-15T04:04:59;5.60;99.90
11609;DHT22;5860;52.018;8.536;2023-04-15T04:07:26;5.60;99.90
11609;DHT22;5860;52.018;8.536;2023-04-15T04:09:53;5.50;99.90
11609;DHT22;5860;52.018;8.536;2023-04-15T04:12:20;5.50;99.90
11609;DHT22;5860;52.018;8.536;2023-04-15T04:14:47;5.50;99.90
11609;DHT22;5860;52.018;8.536;2023-04-15T04:17:13;5.60;99.90
11609;DHT22;5860;52.018;8.536;2023-04-15T04:19:41;5.60;99.90
11609;DHT22;5860;52.018;8.536;2023-04-15T04:22:07;5.50;99.90
11609;DHT22;5860;52.018;8.536;2023-04-15T04:24:35;5.50;99.90
11609;DHT22;5860;52.018;8.536;2023-04-15T04:27:02;5.60;99.90
11609;DHT22;5860;52.018;8.536;2023-04-15T04:29:29;5.50;99.90
11609;DHT22;5860;52.018;8.536;2023-04-15T04:31:56;5.50;99.90
11609;DHT22;5860;52.018;8.536;2023-04-15T04:34:23;5.50;99.90
11609;DHT22;5860;52.018;8.536;2023-04-15T04:36:50;5.50;99.90
11609;DHT22;5860;52.018;8.536;2023-04-15T04:39:17;5.50;99.90
11609;DHT22;5860;52.018;8.536;2023-04-15T04:41:44;5.50;99.90
11609;DHT22;5860;52.018;8.536;2023-04-15T04:44:11;5.50;99.90
11609;DHT22;5860;52.018;8.536;2023-04-15T04:46:38;5.50;99.90
11609;DHT22;5860;52.018;8.536;2023-04-15T04:49:05;5.50;99.90
11609;DHT22;5860;52.018;8.536;2023-04-15T04:51:32;5.50;99.90
11609;DHT22;5860;52.018;8.536;2023-04-15T04:53:59;5.50;99.90
11609;DHT22;5860;52.018;8.536;2023-04-15T04:56:29;5.50;99.90
11609;DHT22;5860;52.018;8.536;2023-04-15T04:58:56;5.50;99.90
11609;DHT22;5860;52.018;8.536;2023-04-15T05:01:26;5.50;99.90
11609;DHT22;5860;52.018;8.536;2023-04-15T05:03:54;5.50;99.90
11609;DHT22;5860;52.018;8.536;2023-04-15T05:06:22;5.60;99.90
11609;DHT22;5860;52.018;8.536;2023-04-15T05:08:49;5.60;99.90
11609;DHT22;5860;52.018;8.536;2023-04-15T05:11:16;5.60;99.90
11609;DHT22;5860;52.018;8.536;2023-04-15T05:13:43;5.60;99.90
11609;DHT22;5860;52.018;8.536;2023-04-15T05:16:10;5.70;99.90
11609;DHT22;5860;52.018;8.536;2023-04-15T05:18:36;5.70;99.90
11609;DHT22;5860;52.018;8.536;2023-04-15T05:21:04;5.70;99.90
11609;DHT22;5860;52.018;8.536;2023-04-15T05:23:31;5.70;99.90
11609;DHT22;5860;52.018;8.536;2023-04-15T05:25:58;5.60;99.90
11609;DHT22;5860;52.018;8.536;2023-04-15T05:28:25;5.80;99.90
11609;DHT22;5860;52.018;8.536;2023-04-15T05:30:52;5.80;99.90
11609;DHT22;5860;52.018;8.536;2023-04-15T05:33:19;5.80;99.90
11609;DHT22;5860;52.018;8.536;2023-04-15T05:35:46;5.80;99.90
11609;DHT22;5860;52.018;8.536;2023-04-15T05:38:13;5.90;99.90
11609;DHT22;5860;52.018;8.536;2023-04-15T05:40:39;5.90;99.90
11609;DHT22;5860;52.018;8.536;2023-04-15T05:43:07;5.90;99.90
11609;DHT22;5860;52.018;8.536;2023-04-15T05:45:34;5.90;99.90
11609;DHT22;5860;52.018;8.536;2023-04-15T05:48:01;5.90;99.90
11609;DHT22;5860;52.018;8.536;2023-04-15T05:50:28;5.90;99.90
11609;DHT22;5860;52.018;8.536;2023-04-15T05:52:55;6.00;99.90
11609;DHT22;5860;52.018;8.536;2023-04-15T05:55:22;6.10;99.90
11609;DHT22;5860;52.018;8.536;2023-04-15T05:57:49;6.10;99.90
11609;DHT22;5860;52.018;8.536;2023-04-15T06:00:16;6.10;99.90
11609;DHT22;5860;52.018;8.536;2023-04-15T06:02:43;6.10;99.90
11609;DHT22;5860;52.018;8.536;2023-04-15T06:05:10;6.10;99.90
11609;DHT22;5860;52.018;8.536;2023-04-15T06:07:38;6.30;99.90
11609;DHT22;5860;52.018;8.536;2023-04-15T06:10:05;6.40;99.90
11609;DHT22;5860;52.018;8.536;2023-04-15T06:12:32;6.40;99.90
11609;DHT22;5860;52.018;8.536;2023-04-15T06:15:00;6.40;99.90
11609;DHT22;5860;52.018;8.536;2023-04-15T06:17:26;6.50;99.90
11609;DHT22;5860;52.018;8.536;2023-04-15T06:19:53;6.50;99.90
11609;DHT22;5860;52.018;8.536;2023-04-15T06:22:22;6.60;99.90
11609;DHT22;5860;52.018;8.536;2023-04-15T06:24:49;6.60;99.90
11609;DHT22;5860;52.018;8.536;2023-04-15T06:27:17;6.60;99.90
11609;DHT22;5860;52.018;8.536;2023-04-15T06:29:44;6.70;99.90
11609;DHT22;5860;52.018;8.536;2023-04-15T06:32:11;6.70;99.90
11609;DHT22;5860;52.018;8.536;2023-04-15T06:34:38;6.80;99.90
11609;DHT22;5860;52.018;8.536;2023-04-15T06:37:05;6.90;99.90
11609;DHT22;5860;52.018;8.536;2023-04-15T06:39:32;6.90;99.90
11609;DHT22;5860;52.018;8.536;2023-04-15T06:41:59;6.80;99.90
11609;DHT22;5860;52.018;8.536;2023-04-15T06:44:27;6.90;99.90
11609;DHT22;5860;52.018;8.536;2023-04-15T06:46:54;7.00;99.90
11609;DHT22;5860;52.018;8.536;2023-04-15T06:49:21;6.80;99.90
11609;DHT22;5860;52.018;8.536;2023-04-15T06:51:49;6.80;99.90
11609;DHT22;5860;52.018;8.536;2023-04-15T06:54:17;6.70;99.90
11609;DHT22;5860;52.018;8.536;2023-04-15T06:56:44;6.80;99.90
11609;DHT22;5860;52.018;8.536;2023-04-15T06:59:11;6.80;99.90
11609;DHT22;5860;52.018;8.536;2023-04-15T07:01:41;6.80;99.90
11609;DHT22;5860;52.018;8.536;2023-04-15T07:04:08;6.70;99.90
11609;DHT22;5860;52.018;8.536;2023-04-15T07:06:35;6.70;99.90
11609;DHT22;5860;52.018;8.536;2023-04-15T07:09:03;6.70;99.90
11609;DHT22;5860;52.018;8.536;2023-04-15T07:11:31;6.70;99.90
11609;DHT22;5860;52.018;8.536;2023-04-15T07:14:00;6.70;99.90
11609;DHT22;5860;52.018;8.536;2023-04-15T07:16:28;6.70;99.90
11609;DHT22;5860;52.018;8.536;2023-04-15T07:18:56;6.60;99.90
11609;DHT22;5860;52.018;8.536;2023-04-15T07:21:24;6.60;99.90
11609;DHT22;5860;52.018;8.536;2023-04-15T07:23:51;6.70;99.90
11609;DHT22;5860;52.018;8.536;2023-04-15T07:26:18;6.70;99.90
11609;DHT22;5860;52.018;8.536;2023-04-15T07:28:45;6.70;99.90
11609;DHT22;5860;52.018;8.536;2023-04-15T07:31:13;6.70;99.90
11609;DHT22;5860;52.018;8.536;2023-04-15T07:33:40;6.60;99.90
11609;DHT22;5860;52.018;8.536;2023-04-15T07:36:07;6.70;99.90
11609;DHT22;5860;52.018;8.536;2023-04-15T07:38:34;6.70;99.90
11609;DHT22;5860;52.018;8.536;2023-04-15T07:41:02;6.60;99.90
11609;DHT22;5860;52.018;8.536;2023-04-15T07:43:28;6.70;99.90
11609;DHT22;5860;52.018;8.536;2023-04-15T07:45:55;6.70;99.90
11609;DHT22;5860;52.018;8.536;2023-04-15T07:48:23;6.80;99.90
11609;DHT22;5860;52.018;8.536;2023-04-15T07:50:50;6.70;99.90
11609;DHT22;5860;52.018;8.536;2023-04-15T07:53:17;6.70;99.90
11609;DHT22;5860;52.018;8.536;2023-04-15T07:55:44;6.80;99.90
11609;DHT22;5860;52.018;8.536;2023-04-15T07:58:12;6.90;99.90
11609;DHT22;5860;52.018;8.536;2023-04-15T08:00:39;6.80;99.90
11609;DHT22;5860;52.018;8.536;2023-04-15T08:03:06;6.80;99.90
11609;DHT22;5860;52.018;8.536;2023-04-15T08:05:33;6.80;99.90
11609;DHT22;5860;52.018;8.536;2023-04-15T08:08:03;6.90;99.90
11609;DHT22;5860;52.018;8.536;2023-04-15T08:10:30;7.00;99.90
11609;DHT22;5860;52.018;8.536;2023-04-15T08:12:57;7.00;99.90
11609;DHT22;5860;52.018;8.536;2023-04-15T08:15:24;7.00;99.90
11609;DHT22;5860;52.018;8.536;2023-04-15T08:17:52;6.90;99.90
11609;DHT22;5860;52.018;8.536;2023-04-15T08:20:19;7.00;99.90
11609;DHT22;5860;52.018;8.536;2023-04-15T08:22:46;7.00;99.90
11609;DHT22;5860;52.018;8.536;2023-04-15T08:25:17;7.00;99.90
11609;DHT22;5860;52.018;8.536;2023-04-15T08:27:46;7.00;99.90
11609;DHT22;5860;52.018;8.536;2023-04-15T08:30:14;7.00;99.90
11609;DHT22;5860;52.018;8.536;2023-04-15T08:32:48;7.00;99.90
11609;DHT22;5860;52.018;8.536;2023-04-15T08:35:15;7.10;99.90
11609;DHT22;5860;52.018;8.536;2023-04-15T08:37:42;7.20;99.90
11609;DHT22;5860;52.018;8.536;2023-04-15T08:40:10;7.30;99.90
11609;DHT22;5860;52.018;8.536;2023-04-15T08:42:43;7.20;99.90
11609;DHT22;5860;52.018;8.536;2023-04-15T08:45:14;7.20;99.90
11609;DHT22;5860;52.018;8.536;2023-04-15T08:47:42;7.30;99.90
11609;DHT22;5860;52.018;8.536;2023-04-15T08:50:11;7.30;99.90
11609;DHT22;5860;52.018;8.536;2023-04-15T08:52:38;7.20;99.90
11609;DHT22;5860;52.018;8.536;2023-04-15T08:55:07;7.40;99.90
11609;DHT22;5860;52.018;8.536;2023-04-15T08:57:37;7.30;99.90
11609;DHT22;5860;52.018;8.536;2023-04-15T09:00:06;7.40;99.90
11609;DHT22;5860;52.018;8.536;2023-04-15T09:02:33;7.40;99.90
11609;DHT22;5860;52.018;8.536;2023-04-15T09:05:00;7.50;99.90
11609;DHT22;5860;52.018;8.536;2023-04-15T09:07:33;7.60;99.90
11609;DHT22;5860;52.018;8.536;2023-04-15T09:10:03;7.70;99.90
11609;DHT22;5860;52.018;8.536;2023-04-15T09:12:32;7.60;99.90
11609;DHT22;5860;52.018;8.536;2023-04-15T09:15:00;7.60;99.90
11609;DHT22;5860;52.018;8.536;2023-04-15T09:17:32;7.70;99.90
11609;DHT22;5860;52.018;8.536;2023-04-15T09:20:11;7.80;99.90
11609;DHT22;5860;52.018;8.536;2023-04-15T09:22:40;8.00;99.90
11609;DHT22;5860;52.018;8.536;2023-04-15T09:27:51;8.00;99.90
11609;DHT22;5860;52.018;8.536;2023-04-15T09:30:18;8.00;99.90
11609;DHT22;5860;52.018;8.536;2023-04-15T09:32:49;8.00;99.90
11609;DHT22;5860;52.018;8.536;2023-04-15T09:35:18;8.00;99.90
11609;DHT22;5860;52.018;8.536;2023-04-15T09:37:46;7.80;99.90
11609;DHT22;5860;52.018;8.536;2023-04-15T09:40:14;7.90;99.90
11609;DHT22;5860;52.018;8.536;2023-04-15T09:43:00;8.00;99.90
11609;DHT22;5860;52.018;8.536;2023-04-15T09:45:31;8.00;99.90
11609;DHT22;5860;52.018;8.536;2023-04-15T09:48:13;8.10;99.90
11609;DHT22;5860;52.018;8.536;2023-04-15T09:50:42;8.00;99.90
11609;DHT22;5860;52.018;8.536;2023-04-15T09:53:10;8.00;99.90
11609;DHT22;5860;52.018;8.536;2023-04-15T09:55:44;7.90;99.90
11609;DHT22;5860;52.018;8.536;2023-04-15T09:58:23;8.00;99.90
11609;DHT22;5860;52.018;8.536;2023-04-15T10:00:52;8.00;99.90
11609;DHT22;5860;52.018;8.536;2023-04-15T10:03:23;7.90;99.90
11609;DHT22;5860;52.018;8.536;2023-04-15T10:05:52;8.00;99.90
11609;DHT22;5860;52.018;8.536;2023-04-15T10:08:22;8.00;99.90
11609;DHT22;5860;52.018;8.536;2023-04-15T10:10:51;7.90;99.90
11609;DHT22;5860;52.018;8.536;2023-04-15T10:13:21;8.00;99.90
11609;DHT22;5860;52.018;8.536;2023-04-15T10:15:55;8.00;99.90
11609;DHT22;5860;52.018;8.536;2023-04-15T10:18:25;8.00;99.90
11609;DHT22;5860;52.018;8.536;2023-04-15T10:20:55;8.00;99.90
11609;DHT22;5860;52.018;8.536;2023-04-15T10:23:22;7.90;99.90
11609;DHT22;5860;52.018;8.536;2023-04-15T10:25:52;7.90;99.90
11609;DHT22;5860;52.018;8.536;2023-04-15T10:28:22;8.00;99.90
11609;DHT22;5860;52.018;8.536;2023-04-15T10:30:49;8.00;99.90
11609;DHT22;5860;52.018;8.536;2023-04-15T10:33:20;8.10;99.90
11609;DHT22;5860;52.018;8.536;2023-04-15T10:35:50;8.20;99.90
11609;DHT22;5860;52.018;8.536;2023-04-15T10:38:42;8.20;99.90
11609;DHT22;5860;52.018;8.536;2023-04-15T10:43:51;8.20;99.90
11609;DHT22;5860;52.018;8.536;2023-04-15T10:49:11;8.30;99.90
11609;DHT22;5860;52.018;8.536;2023-04-15T10:51:41;8.20;99.90
11609;DHT22;5860;52.018;8.536;2023-04-15T10:54:15;8.10;99.90
11609;DHT22;5860;52.018;8.536;2023-04-15T10:56:44;8.20;99.90
11609;DHT22;5860;52.018;8.536;2023-04-15T10:59:12;8.10;99.90
11609;DHT22;5860;52.018;8.536;2023-04-15T11:02:02;8.10;99.90
11609;DHT22;5860;52.018;8.536;2023-04-15T11:04:55;8.20;99.90
11609;DHT22;5860;52.018;8.536;2023-04-15T11:12:51;8.20;99.90
11609;DHT22;5860;52.018;8.536;2023-04-15T11:15:31;8.20;99.90
11609;DHT22;5860;52.018;8.536;2023-04-15T11:23:41;8.30;99.90
11609;DHT22;5860;52.018;8.536;2023-04-15T11:26:12;8.30;99.90
11609;DHT22;5860;52.018;8.536;2023-04-15T11:28:44;8.40;99.90
11609;DHT22;5860;52.018;8.536;2023-04-15T11:31:16;8.40;99.90
11609;DHT22;5860;52.018;8.536;2023-04-15T11:33:57;8.30;99.90
11609;DHT22;5860;52.018;8.536;2023-04-15T11:36:26;8.30;99.90
11609;DHT22;5860;52.018;8.536;2023-04-15T11:38:54;8.30;99.90
11609;DHT22;5860;52.018;8.536;2023-04-15T11:41:22;8.30;99.90
11609;DHT22;5860;52.018;8.536;2023-04-15T11:43:50;8.20;99.90
11609;DHT22;5860;52.018;8.536;2023-04-15T11:46:17;8.30;99.90
11609;DHT22;5860;52.018;8.536;2023-04-15T11:48:45;8.30;99.90
11609;DHT22;5860;52.018;8.536;2023-04-15T11:51:13;8.30;99.90
11609;DHT22;5860;52.018;8.536;2023-04-15T11:53:49;8.30;99.90
11609;DHT22;5860;52.018;8.536;2023-04-15T11:56:20;8.30;99.90
11609;DHT22;5860;52.018;8.536;2023-04-15T11:58:48;8.30;99.90
11609;DHT22;5860;52.018;8.536;2023-04-15T12:01:17;8.40;99.90
11609;DHT22;5860;52.018;8.536;2023-04-15T12:03:45;8.30;99.90
11609;DHT22;5860;52.018;8.536;2023-04-15T12:06:23;8.30;99.90
11609;DHT22;5860;52.018;8.536;2023-04-15T12:11:29;8.40;99.90
11609;DHT22;5860;52.018;8.536;2023-04-15T12:16:47;8.40;99.90
11609;DHT22;5860;52.018;8.536;2023-04-15T12:19:25;8.40;99.90
11609;DHT22;5860;52.018;8.536;2023-04-15T12:21:56;8.30;99.90
11609;DHT22;5860;52.018;8.536;2023-04-15T12:24:26;8.30;99.90
11609;DHT22;5860;52.018;8.536;2023-04-15T12:26:56;8.30;99.90
11609;DHT22;5860;52.018;8.536;2023-04-15T12:29:26;8.30;99.90
11609;DHT22;5860;52.018;8.536;2023-04-15T12:32:08;8.30;99.90
11609;DHT22;5860;52.018;8.536;2023-04-15T12:34:50;8.30;99.90
11609;DHT22;5860;52.018;8.536;2023-04-15T12:37:17;8.40;99.90
11609;DHT22;5860;52.018;8.536;2023-04-15T12:39:46;8.20;99.90
11609;DHT22;5860;52.018;8.536;2023-04-15T12:42:16;8.30;99.90
11609;DHT22;5860;52.018;8.536;2023-04-15T12:44:44;8.30;99.90
11609;DHT22;5860;52.018;8.536;2023-04-15T12:47:11;8.30;99.90
11609;DHT22;5860;52.018;8.536;2023-04-15T12:49:39;8.30;99.90
11609;DHT22;5860;52.018;8.536;2023-04-15T12:52:06;8.30;99.90
11609;DHT22;5860;52.018;8.536;2023-04-15T12:54:34;8.30;99.90
11609;DHT22;5860;52.018;8.536;2023-04-15T12:57:02;8.30;99.90
11609;DHT22;5860;52.018;8.536;2023-04-15T12:59:32;8.30;99.90
11609;DHT22;5860;52.018;8.536;2023-04-15T13:02:00;8.40;99.90
11609;DHT22;5860;52.018;8.536;2023-04-15T13:04:28;8.40;99.90
11609;DHT22;5860;52.018;8.536;2023-04-15T13:06:58;8.30;99.90
11609;DHT22;5860;52.018;8.536;2023-04-15T13:09:26;8.30;99.90
11609;DHT22;5860;52.018;8.536;2023-04-15T13:11:53;8.30;99.90
11609;DHT22;5860;52.018;8.536;2023-04-15T13:14:20;8.30;99.90
11609;DHT22;5860;52.018;8.536;2023-04-15T13:16:48;8.30;99.90
11609;DHT22;5860;52.018;8.536;2023-04-15T13:19:15;8.30;99.90
11609;DHT22;5860;52.018;8.536;2023-04-15T13:21:44;8.30;99.90
11609;DHT22;5860;52.018;8.536;2023-04-15T13:24:11;8.30;99.90
11609;DHT22;5860;52.018;8.536;2023-04-15T13:26:37;8.30;99.90
11609;DHT22;5860;52.018;8.536;2023-04-15T13:29:08;8.30;99.90
11609;DHT22;5860;52.018;8.536;2023-04-15T13:31:34;8.30;99.90
11609;DHT22;5860;52.018;8.536;2023-04-15T13:34:02;8.30;99.90
11609;DHT22;5860;52.018;8.536;2023-04-15T13:36:29;8.30;99.90
11609;DHT22;5860;52.018;8.536;2023-04-15T13:38:56;8.30;99.90
11609;DHT22;5860;52.018;8.536;2023-04-15T13:41:26;8.30;99.90
11609;DHT22;5860;52.018;8.536;2023-04-15T13:43:56;8.20;99.90
11609;DHT22;5860;52.018;8.536;2023-04-15T13:46:24;8.20;99.90
11609;DHT22;5860;52.018;8.536;2023-04-15T13:48:54;8.30;99.90
11609;DHT22;5860;52.018;8.536;2023-04-15T13:51:21;8.30;99.90
11609;DHT22;5860;52.018;8.536;2023-04-15T13:54:01;8.30;99.90
11609;DHT22;5860;52.018;8.536;2023-04-15T13:56:29;8.30;99.90
11609;DHT22;5860;52.018;8.536;2023-04-15T13:59:02;8.30;99.90
11609;DHT22;5860;52.018;8.536;2023-04-15T14:01:34;8.40;99.90
11609;DHT22;5860;52.018;8.536;2023-04-15T14:04:01;8.40;99.90
11609;DHT22;5860;52.018;8.536;2023-04-15T14:06:29;8.40;99.90
11609;DHT22;5860;52.018;8.536;2023-04-15T14:08:57;8.40;99.90
11609;DHT22;5860;52.018;8.536;2023-04-15T14:11:26;8.40;99.90
11609;DHT22;5860;52.018;8.536;2023-04-15T14:13:53;8.40;99.90
11609;DHT22;5860;52.018;8.536;2023-04-15T14:16:21;8.40;99.90
11609;DHT22;5860;52.018;8.536;2023-04-15T14:18:48;8.40;99.90
11609;DHT22;5860;52.018;8.536;2023-04-15T14:21:15;8.30;99.90
11609;DHT22;5860;52.018;8.536;2023-04-15T14:23:51;8.30;99.90
11609;DHT22;5860;52.018;8.536;2023-04-15T14:26:18;8.30;99.90
11609;DHT22;5860;52.018;8.536;2023-04-15T14:28:48;8.40;99.90
11609;DHT22;5860;52.018;8.536;2023-04-15T14:31:15;8.40;99.90
11609;DHT22;5860;52.018;8.536;2023-04-15T14:33:42;8.40;99.90
11609;DHT22;5860;52.018;8.536;2023-04-15T14:36:10;8.50;99.90
11609;DHT22;5860;52.018;8.536;2023-04-15T14:38:37;8.40;99.90
11609;DHT22;5860;52.018;8.536;2023-04-15T14:41:07;8.40;99.90
11609;DHT22;5860;52.018;8.536;2023-04-15T14:43:36;8.40;99.90
11609;DHT22;5860;52.018;8.536;2023-04-15T14:46:03;8.40;99.90
11609;DHT22;5860;52.018;8.536;2023-04-15T14:48:31;8.50;99.90
11609;DHT22;5860;52.018;8.536;2023-04-15T14:50:58;8.40;99.90
11609;DHT22;5860;52.018;8.536;2023-04-15T14:53:25;8.50;99.90
11609;DHT22;5860;52.018;8.536;2023-04-15T14:55:52;8.40;99.90
11609;DHT22;5860;52.018;8.536;2023-04-15T14:58:20;8.40;99.90
11609;DHT22;5860;52.018;8.536;2023-04-15T15:00:47;8.50;99.90
11609;DHT22;5860;52.018;8.536;2023-04-15T15:03:15;8.50;99.90
11609;DHT22;5860;52.018;8.536;2023-04-15T15:05:44;8.50;99.90
11609;DHT22;5860;52.018;8.536;2023-04-15T15:08:12;8.50;99.90
11609;DHT22;5860;52.018;8.536;2023-04-15T15:10:40;8.50;99.90
11609;DHT22;5860;52.018;8.536;2023-04-15T15:13:15;8.50;99.90
11609;DHT22;5860;52.018;8.536;2023-04-15T15:15:43;8.50;99.90
11609;DHT22;5860;52.018;8.536;2023-04-15T15:18:10;8.60;99.90
11609;DHT22;5860;52.018;8.536;2023-04-15T15:20:37;8.60;99.90
11609;DHT22;5860;52.018;8.536;2023-04-15T15:23:04;8.60;99.90
11609;DHT22;5860;52.018;8.536;2023-04-15T15:25:34;8.60;99.90
11609;DHT22;5860;52.018;8.536;2023-04-15T15:28:05;8.70;99.90
11609;DHT22;5860;52.018;8.536;2023-04-15T15:30:32;8.60;99.90
11609;DHT22;5860;52.018;8.536;2023-04-15T15:32:59;8.70;99.90
11609;DHT22;5860;52.018;8.536;2023-04-15T15:35:26;8.70;99.90
11609;DHT22;5860;52.018;8.536;2023-04-15T15:37:53;8.80;99.90
11609;DHT22;5860;52.018;8.536;2023-04-15T15:40:21;8.80;99.90
11609;DHT22;5860;52.018;8.536;2023-04-15T15:42:47;8.90;99.90
11609;DHT22;5860;52.018;8.536;2023-04-15T15:45:16;8.90;99.90
11609;DHT22;5860;52.018;8.536;2023-04-15T15:47:43;8.80;99.90
11609;DHT22;5860;52.018;8.536;2023-04-15T15:50:16;8.80;99.90
11609;DHT22;5860;52.018;8.536;2023-04-15T15:52:43;8.80;99.90
11609;DHT22;5860;52.018;8.536;2023-04-15T15:55:11;8.80;99.90
11609;DHT22;5860;52.018;8.536;2023-04-15T15:57:38;8.80;99.90
11609;DHT22;5860;52.018;8.536;2023-04-15T16:00:05;8.80;99.90
11609;DHT22;5860;52.018;8.536;2023-04-15T16:02:38;8.80;99.90
11609;DHT22;5860;52.018;8.536;2023-04-15T16:05:25;8.70;99.90
11609;DHT22;5860;52.018;8.536;2023-04-15T16:07:51;8.80;99.90
11609;DHT22;5860;52.018;8.536;2023-04-15T16:10:19;8.90;99.90
11609;DHT22;5860;52.018;8.536;2023-04-15T16:12:46;8.80;99.90
11609;DHT22;5860;52.018;8.536;2023-04-15T16:15:13;8.90;99.90
11609;DHT22;5860;52.018;8.536;2023-04-15T16:17:40;8.80;99.90
11609;DHT22;5860;52.018;8.536;2023-04-15T16:20:07;8.80;99.90
11609;DHT22;5860;52.018;8.536;2023-04-15T16:22:35;8.80;99.90
11609;DHT22;5860;52.018;8.536;2023-04-15T16:25:02;8.80;99.90
11609;DHT22;5860;52.018;8.536;2023-04-15T16:27:29;8.80;99.90
11609;DHT22;5860;52.018;8.536;2023-04-15T16:29:56;8.90;99.90
11609;DHT22;5860;52.018;8.536;2023-04-15T16:32:26;8.90;99.90
11609;DHT22;5860;52.018;8.536;2023-04-15T16:34:54;8.90;99.90